sensor_id;sensor_type;location;lat;lon;timestamp;pressure;altitude;pressure_sealevel;temperature;humidity
82413;BME280;72056;51.980;15.436;2024-01-30T00:01:58;102206.06;;;5.82;93.04
82413;BME280;72056;51.980;15.436;2024-01-30T00:04:26;102199.44;;;5.70;93.19
82413;BME280;72056;51.980;15.436;2024-01-30T00:06:52;102186.66;;;5.55;93.98
82413;BME280;72056;51.980;15.436;2024-01-30T00:09:19;102201.31;;;5.68;94.08
82413;BME280;72056;51.980;15.436;2024-01-30T00:11:45;102185.28;;;5.65;93.94
82413;BME280;72056;51.980;15.436;2024-01-30T00:14:11;102198.91;;;5.62;94.49
82413;BME280;72056;51.980;15.436;2024-01-30T00:16:38;102188.41;;;5.56;94.50
82413;BME280;72056;51.980;15.436;2024-01-30T00:19:05;102197.84;;;5.66;95.17
82413;BME280;72056;51.980;15.436;2024-01-30T00:21:32;102189.16;;;5.59;94.17
82413;BME280;72056;51.980;15.436;2024-01-30T00:23:59;102196.38;;;5.59;95.22
82413;BME280;72056;51.980;15.436;2024-01-30T00:26:25;102184.03;;;5.34;96.51
82413;BME280;72056;51.980;15.436;2024-01-30T00:28:53;102194.53;;;5.41;96.91
82413;BME280;72056;51.980;15.436;2024-01-30T00:31:19;102207.97;;;5.42;97.68
82413;BME280;72056;51.980;15.436;2024-01-30T00:33:47;102189.28;;;5.38;97.32
82413;BME280;72056;51.980;15.436;2024-01-30T00:36:14;102199.41;;;5.32;98.10
82413;BME280;72056;51.980;15.436;2024-01-30T00:38:40;102195.34;;;5.24;98.07
82413;BME280;72056;51.980;15.436;2024-01-30T00:41:08;102204.72;;;5.15;99.37
82413;BME280;72056;51.980;15.436;2024-01-30T00:43:36;102212.31;;;5.26;99.82
82413;BME280;72056;51.980;15.436;2024-01-30T00:46:02;102200.31;;;5.13;99.49
82413;BME280;72056;51.980;15.436;2024-01-30T00:48:30;102202.69;;;5.20;100.00
82413;BME280;72056;51.980;15.436;2024-01-30T00:50:56;102198.88;;;5.06;100.00
82413;BME280;72056;51.980;15.436;2024-01-30T00:53:23;102197.34;;;5.00;100.00
82413;BME280;72056;51.980;15.436;2024-01-30T00:55:51;102194.22;;;4.89;100.00
82413;BME280;72056;51.980;15.436;2024-01-30T00:58:17;102189.72;;;4.89;100.00
82413;BME280;72056;51.980;15.436;2024-01-30T01:00:45;102191.53;;;4.89;100.00
82413;BME280;72056;51.980;15.436;2024-01-30T01:03:11;102199.72;;;4.87;100.00
82413;BME280;72056;51.980;15.436;2024-01-30T01:05:40;102195.31;;;4.85;100.00
82413;BME280;72056;51.980;15.436;2024-01-30T01:08:06;102183.59;;;4.66;100.00
82413;BME280;72056;51.980;15.436;2024-01-30T01:10:33;102192.78;;;4.82;100.00
82413;BME280;72056;51.980;15.436;2024-01-30T01:13:01;102207.41;;;4.76;100.00
82413;BME280;72056;51.980;15.436;2024-01-30T01:15:27;102207.47;;;4.75;100.00
82413;BME280;72056;51.980;15.436;2024-01-30T01:17:54;102203.84;;;4.76;100.00
82413;BME280;72056;51.980;15.436;2024-01-30T01:20:21;102195.88;;;4.73;100.00
82413;BME280;72056;51.980;15.436;2024-01-30T01:22:48;102192.50;;;4.68;100.00
82413;BME280;72056;51.980;15.436;2024-01-30T01:25:15;102193.31;;;4.70;100.00
82413;BME280;72056;51.980;15.436;2024-01-30T01:27:42;102176.31;;;4.68;100.00
82413;BME280;72056;51.980;15.436;2024-01-30T01:30:10;102188.38;;;4.79;100.00
82413;BME280;72056;51.980;15.436;2024-01-30T01:32:40;102179.00;;;4.88;100.00
82413;BME280;72056;51.980;15.436;2024-01-30T01:35:15;102168.13;;;4.89;100.00
82413;BME280;72056;51.980;15.436;2024-01-30T01:37:41;102173.41;;;4.92;100.00
82413;BME280;72056;51.980;15.436;2024-01-30T01:40:09;102181.44;;;4.94;100.00
82413;BME280;72056;51.980;15.436;2024-01-30T01:42:36;102173.47;;;4.91;100.00
82413;BME280;72056;51.980;15.436;2024-01-30T01:45:04;102189.81;;;4.88;100.00
82413;BME280;72056;51.980;15.436;2024-01-30T01:47:32;102185.06;;;4.93;100.00
82413;BME280;72056;51.980;15.436;2024-01-30T01:49:59;102169.28;;;4.84;100.00
82413;BME280;72056;51.980;15.436;2024-01-30T01:52:26;102189.31;;;4.99;100.00
82413;BME280;72056;51.980;15.436;2024-01-30T01:54:53;102173.63;;;4.88;100.00
82413;BME280;72056;51.980;15.436;2024-01-30T01:57:19;102176.31;;;5.07;100.00
82413;BME280;72056;51.980;15.436;2024-01-30T01:59:46;102189.94;;;4.85;100.00
82413;BME280;72056;51.980;15.436;2024-01-30T02:02:14;102177.09;;;4.90;100.00
82413;BME280;72056;51.980;15.436;2024-01-30T02:04:43;102168.88;;;4.73;100.00
82413;BME280;72056;51.980;15.436;2024-01-30T02:07:10;102165.56;;;4.86;100.00
82413;BME280;72056;51.980;15.436;2024-01-30T02:09:37;102174.00;;;4.99;100.00
82413;BME280;72056;51.980;15.436;2024-01-30T02:12:04;102177.25;;;4.87;100.00
82413;BME280;72056;51.980;15.436;2024-01-30T02:14:32;102171.03;;;4.85;100.00
82413;BME280;72056;51.980;15.436;2024-01-30T02:17:00;102176.50;;;4.83;100.00
82413;BME280;72056;51.980;15.436;2024-01-30T02:19:27;102182.09;;;4.79;100.00
82413;BME280;72056;51.980;15.436;2024-01-30T02:21:56;102170.50;;;4.77;100.00
82413;BME280;72056;51.980;15.436;2024-01-30T02:24:23;102178.47;;;4.80;100.00
82413;BME280;72056;51.980;15.436;2024-01-30T02:26:51;102177.47;;;4.82;100.00
82413;BME280;72056;51.980;15.436;2024-01-30T02:29:18;102180.06;;;4.84;100.00
82413;BME280;72056;51.980;15.436;2024-01-30T02:31:45;102172.91;;;4.83;100.00
82413;BME280;72056;51.980;15.436;2024-01-30T02:34:13;102181.50;;;4.92;100.00
82413;BME280;72056;51.980;15.436;2024-01-30T02:36:43;102173.72;;;4.85;100.00
82413;BME280;72056;51.980;15.436;2024-01-30T02:39:10;102177.66;;;4.78;100.00
82413;BME280;72056;51.980;15.436;2024-01-30T02:41:37;102182.31;;;4.74;100.00
82413;BME280;72056;51.980;15.436;2024-01-30T02:44:04;102174.78;;;4.82;100.00
82413;BME280;72056;51.980;15.436;2024-01-30T02:46:31;102173.88;;;4.82;100.00
82413;BME280;72056;51.980;15.436;2024-01-30T02:48:57;102174.56;;;4.87;100.00
82413;BME280;72056;51.980;15.436;2024-01-30T02:51:28;102169.50;;;4.79;100.00
82413;BME280;72056;51.980;15.436;2024-01-30T02:53:54;102167.88;;;4.75;100.00
82413;BME280;72056;51.980;15.436;2024-01-30T02:56:22;102174.78;;;4.82;100.00
82413;BME280;72056;51.980;15.436;2024-01-30T02:58:48;102172.00;;;4.64;100.00
82413;BME280;72056;51.980;15.436;2024-01-30T03:01:15;102172.25;;;4.78;100.00
82413;BME280;72056;51.980;15.436;2024-01-30T03:03:41;102169.56;;;4.78;100.00
82413;BME280;72056;51.980;15.436;2024-01-30T03:06:09;102157.22;;;4.72;100.00
82413;BME280;72056;51.980;15.436;2024-01-30T03:08:36;102161.22;;;4.64;100.00
82413;BME280;72056;51.980;15.436;2024-01-30T03:11:05;102167.88;;;4.75;100.00
82413;BME280;72056;51.980;15.436;2024-01-30T03:13:32;102163.16;;;4.60;100.00
82413;BME280;72056;51.980;15.436;2024-01-30T03:15:59;102166.00;;;4.57;100.00
82413;BME280;72056;51.980;15.436;2024-01-30T03:18:26;102167.81;;;4.57;100.00
82413;BME280;72056;51.980;15.436;2024-01-30T03:20:52;102165.59;;;4.66;100.00
82413;BME280;72056;51.980;15.436;2024-01-30T03:23:19;102154.69;;;4.69;100.00
82413;BME280;72056;51.980;15.436;2024-01-30T03:25:47;102154.13;;;4.61;100.00
82413;BME280;72056;51.980;15.436;2024-01-30T03:28:14;102154.31;;;4.77;100.00
82413;BME280;72056;51.980;15.436;2024-01-30T03:30:40;102157.00;;;4.77;100.00
82413;BME280;72056;51.980;15.436;2024-01-30T03:33:07;102146.31;;;4.55;100.00
82413;BME280;72056;51.980;15.436;2024-01-30T03:35:35;102154.69;;;4.69;100.00
82413;BME280;72056;51.980;15.436;2024-01-30T03:38:02;102151.09;;;4.69;100.00
82413;BME280;72056;51.980;15.436;2024-01-30T03:40:30;102142.63;;;4.58;100.00
82413;BME280;72056;51.980;15.436;2024-01-30T03:42:57;102153.84;;;4.67;100.00
82413;BME280;72056;51.980;15.436;2024-01-30T03:45:24;102146.09;;;4.60;100.00
82413;BME280;72056;51.980;15.436;2024-01-30T03:47:50;102146.72;;;4.66;100.00
82413;BME280;72056;51.980;15.436;2024-01-30T03:50:19;102151.31;;;4.64;100.00
82413;BME280;72056;51.980;15.436;2024-01-30T03:52:46;102143.78;;;4.52;100.00
82413;BME280;72056;51.980;15.436;2024-01-30T03:55:14;102131.06;;;4.54;100.00
82413;BME280;72056;51.980;15.436;2024-01-30T03:57:41;102139.72;;;4.62;100.00
82413;BME280;72056;51.980;15.436;2024-01-30T04:00:09;102145.09;;;4.62;100.00
82413;BME280;72056;51.980;15.436;2024-01-30T04:02:36;102136.66;;;4.70;100.00
82413;BME280;72056;51.980;15.436;2024-01-30T04:05:04;102139.66;;;4.64;100.00
82413;BME280;72056;51.980;15.436;2024-01-30T04:07:32;102146.25;;;4.57;100.00
82413;BME280;72056;51.980;15.436;2024-01-30T04:09:59;102145.16;;;4.61;100.00
82413;BME280;72056;51.980;15.436;2024-01-30T04:12:26;102147.84;;;4.61;100.00
82413;BME280;72056;51.980;15.436;2024-01-30T04:14:53;102135.03;;;4.66;100.00
82413;BME280;72056;51.980;15.436;2024-01-30T04:17:20;102147.31;;;4.73;100.00
82413;BME280;72056;51.980;15.436;2024-01-30T04:19:47;102145.16;;;4.61;100.00
82413;BME280;72056;51.980;15.436;2024-01-30T04:22:14;102147.47;;;4.70;100.00
82413;BME280;72056;51.980;15.436;2024-01-30T04:24:41;102146.66;;;4.68;100.00
82413;BME280;72056;51.980;15.436;2024-01-30T04:27:07;102144.22;;;4.62;100.00
82413;BME280;72056;51.980;15.436;2024-01-30T04:29:34;102140.44;;;4.66;100.00
82413;BME280;72056;51.980;15.436;2024-01-30T04:32:01;102146.09;;;4.60;100.00
82413;BME280;72056;51.980;15.436;2024-01-30T04:34:28;102151.84;;;4.52;100.00
82413;BME280;72056;51.980;15.436;2024-01-30T04:36:55;102142.47;;;4.61;100.00
82413;BME280;72056;51.980;15.436;2024-01-30T04:39:22;102147.47;;;4.49;100.00
82413;BME280;72056;51.980;15.436;2024-01-30T04:41:48;102143.44;;;4.39;100.00
82413;BME280;72056;51.980;15.436;2024-01-30T04:44:16;102152.44;;;4.38;100.00
82413;BME280;72056;51.980;15.436;2024-01-30T04:46:42;102149.81;;;4.37;100.00
82413;BME280;72056;51.980;15.436;2024-01-30T04:49:09;102147.13;;;4.37;100.00
82413;BME280;72056;51.980;15.436;2024-01-30T04:51:36;102147.19;;;4.35;100.00
82413;BME280;72056;51.980;15.436;2024-01-30T04:54:02;102157.97;;;4.35;100.00
82413;BME280;72056;51.980;15.436;2024-01-30T04:56:30;102164.84;;;4.42;100.00
82413;BME280;72056;51.980;15.436;2024-01-30T04:58:57;102160.84;;;4.31;100.00
82413;BME280;72056;51.980;15.436;2024-01-30T05:01:25;102165.47;;;4.29;100.00
82413;BME280;72056;51.980;15.436;2024-01-30T05:03:52;102158.56;;;4.22;100.00
82413;BME280;72056;51.980;15.436;2024-01-30T05:06:45;102169.09;;;4.28;100.00
82413;BME280;72056;51.980;15.436;2024-01-30T05:09:12;102160.34;;;4.23;100.00
82413;BME280;72056;51.980;15.436;2024-01-30T05:11:39;102155.00;;;4.21;100.00
82413;BME280;72056;51.980;15.436;2024-01-30T05:14:06;102160.41;;;4.21;100.00
82413;BME280;72056;51.980;15.436;2024-01-30T05:16:32;102157.28;;;4.10;100.00
82413;BME280;72056;51.980;15.436;2024-01-30T05:19:00;102169.53;;;4.17;100.00
82413;BME280;72056;51.980;15.436;2024-01-30T05:21:26;102173.25;;;4.15;100.00
82413;BME280;72056;51.980;15.436;2024-01-30T05:23:54;102157.78;;;3.98;100.00
82413;BME280;72056;51.980;15.436;2024-01-30T05:26:21;102163.28;;;3.95;100.00
82413;BME280;72056;51.980;15.436;2024-01-30T05:28:48;102162.09;;;4.02;100.00
82413;BME280;72056;51.980;15.436;2024-01-30T05:31:15;102169.25;;;4.03;100.00
82413;BME280;72056;51.980;15.436;2024-01-30T05:33:43;102164.13;;;4.17;100.00
82413;BME280;72056;51.980;15.436;2024-01-30T05:36:12;102151.06;;;4.08;100.00
82413;BME280;72056;51.980;15.436;2024-01-30T05:38:39;102147.50;;;4.07;100.00
82413;BME280;72056;51.980;15.436;2024-01-30T05:41:06;102153.91;;;4.05;100.00
82413;BME280;72056;51.980;15.436;2024-01-30T05:43:33;102160.75;;;4.12;100.00
82413;BME280;72056;51.980;15.436;2024-01-30T05:45:59;102147.56;;;4.06;100.00
82413;BME280;72056;51.980;15.436;2024-01-30T05:48:27;102154.25;;;4.18;100.00
82413;BME280;72056;51.980;15.436;2024-01-30T05:50:53;102155.56;;;4.07;100.00
82413;BME280;72056;51.980;15.436;2024-01-30T05:53:21;102163.41;;;4.14;100.00
82413;BME280;72056;51.980;15.436;2024-01-30T05:55:51;102163.59;;;4.09;100.00
82413;BME280;72056;51.980;15.436;2024-01-30T05:58:18;102151.28;;;4.03;100.00
82413;BME280;72056;51.980;15.436;2024-01-30T06:00:45;102153.75;;;4.08;100.00
82413;BME280;72056;51.980;15.436;2024-01-30T06:03:12;102155.53;;;4.09;100.00
82413;BME280;72056;51.980;15.436;2024-01-30T06:05:40;102143.38;;;3.99;100.00
82413;BME280;72056;51.980;15.436;2024-01-30T06:08:07;102144.19;;;4.01;100.00
82413;BME280;72056;51.980;15.436;2024-01-30T06:10:33;102150.25;;;4.06;100.00
82413;BME280;72056;51.980;15.436;2024-01-30T06:13:01;102140.19;;;4.11;100.00
82413;BME280;72056;51.980;15.436;2024-01-30T06:15:28;102154.25;;;4.18;100.00
82413;BME280;72056;51.980;15.436;2024-01-30T06:17:55;102151.44;;;4.21;100.00
82413;BME280;72056;51.980;15.436;2024-01-30T06:20:22;102143.66;;;4.13;100.00
82413;BME280;72056;51.980;15.436;2024-01-30T06:22:49;102144.59;;;4.12;100.00
82413;BME280;72056;51.980;15.436;2024-01-30T06:25:16;102150.59;;;4.19;100.00
82413;BME280;72056;51.980;15.436;2024-01-30T06:27:43;102163.84;;;4.45;100.00
82413;BME280;72056;51.980;15.436;2024-01-30T06:30:09;102172.88;;;4.44;100.00
82413;BME280;72056;51.980;15.436;2024-01-30T06:32:37;102161.16;;;4.45;100.00
82413;BME280;72056;51.980;15.436;2024-01-30T06:35:05;102161.28;;;4.62;100.00
82413;BME280;72056;51.980;15.436;2024-01-30T06:37:32;102152.09;;;4.66;100.00
82413;BME280;72056;51.980;15.436;2024-01-30T06:39:59;102161.28;;;4.82;100.00
82413;BME280;72056;51.980;15.436;2024-01-30T06:42:26;102148.34;;;4.89;100.00
82413;BME280;72056;51.980;15.436;2024-01-30T06:44:52;102127.34;;;4.77;100.00
82413;BME280;72056;51.980;15.436;2024-01-30T06:47:19;102138.66;;;4.85;100.00
82413;BME280;72056;51.980;15.436;2024-01-30T06:49:44;102149.78;;;4.98;100.00
82413;BME280;72056;51.980;15.436;2024-01-30T06:52:11;102142.34;;;5.03;100.00
82413;BME280;72056;51.980;15.436;2024-01-30T06:54:38;102143.81;;;5.10;100.00
82413;BME280;72056;51.980;15.436;2024-01-30T06:57:05;102138.53;;;5.07;100.00
82413;BME280;72056;51.980;15.436;2024-01-30T06:59:38;102145.63;;;5.09;100.00
82413;BME280;72056;51.980;15.436;2024-01-30T07:02:10;102135.53;;;5.13;100.00
82413;BME280;72056;51.980;15.436;2024-01-30T07:04:36;102154.41;;;5.33;100.00
82413;BME280;72056;51.980;15.436;2024-01-30T07:07:06;102143.00;;;5.26;100.00
82413;BME280;72056;51.980;15.436;2024-01-30T07:09:38;102138.41;;;5.28;100.00
82413;BME280;72056;51.980;15.436;2024-01-30T07:12:06;102153.97;;;5.42;100.00
82413;BME280;72056;51.980;15.436;2024-01-30T07:14:33;102148.69;;;5.39;100.00
82413;BME280;72056;51.980;15.436;2024-01-30T07:17:00;102147.53;;;5.45;100.00
82413;BME280;72056;51.980;15.436;2024-01-30T07:19:26;102148.63;;;5.41;100.00
82413;BME280;72056;51.980;15.436;2024-01-30T07:21:53;102145.53;;;5.48;100.00
82413;BME280;72056;51.980;15.436;2024-01-30T07:24:19;102151.47;;;5.56;100.00
82413;BME280;72056;51.980;15.436;2024-01-30T07:26:45;102139.50;;;5.43;100.00
82413;BME280;72056;51.980;15.436;2024-01-30T07:29:12;102148.94;;;5.53;100.00
82413;BME280;72056;51.980;15.436;2024-01-30T07:31:39;102164.31;;;5.70;100.00
82413;BME280;72056;51.980;15.436;2024-01-30T07:34:06;102168.38;;;5.97;99.53
82413;BME280;72056;51.980;15.436;2024-01-30T07:36:33;102166.88;;;6.09;98.19
82413;BME280;72056;51.980;15.436;2024-01-30T07:39:01;102164.19;;;6.09;97.28
82413;BME280;72056;51.980;15.436;2024-01-30T07:41:28;102161.56;;;6.07;98.08
82413;BME280;72056;51.980;15.436;2024-01-30T07:43:56;102118.63;;;6.01;96.96
82413;BME280;72056;51.980;15.436;2024-01-30T07:46:23;102163.50;;;6.23;96.69
82413;BME280;72056;51.980;15.436;2024-01-30T07:48:49;102151.41;;;6.12;96.30
82413;BME280;72056;51.980;15.436;2024-01-30T07:51:16;102148.38;;;6.19;95.19
82413;BME280;72056;51.980;15.436;2024-01-30T07:53:43;102159.66;;;6.27;95.35
82413;BME280;72056;51.980;15.436;2024-01-30T07:56:11;102153.72;;;6.37;94.14
82413;BME280;72056;51.980;15.436;2024-01-30T07:58:38;102154.38;;;6.42;93.58
82413;BME280;72056;51.980;15.436;2024-01-30T08:01:04;102160.41;;;6.47;92.63
82413;BME280;72056;51.980;15.436;2024-01-30T08:03:31;102131.84;;;6.42;92.05
82413;BME280;72056;51.980;15.436;2024-01-30T08:05:58;102149.34;;;6.52;92.39
82413;BME280;72056;51.980;15.436;2024-01-30T08:08:25;102155.53;;;6.71;92.36
82413;BME280;72056;51.980;15.436;2024-01-30T08:10:53;102147.09;;;6.77;91.11
82413;BME280;72056;51.980;15.436;2024-01-30T08:13:19;102153.81;;;6.86;90.81
82413;BME280;72056;51.980;15.436;2024-01-30T08:15:46;102146.47;;;6.72;90.93
82413;BME280;72056;51.980;15.436;2024-01-30T08:18:14;102154.00;;;6.83;89.59
82413;BME280;72056;51.980;15.436;2024-01-30T08:20:41;102147.19;;;6.91;89.91
82413;BME280;72056;51.980;15.436;2024-01-30T08:23:09;102157.28;;;7.05;89.13
82413;BME280;72056;51.980;15.436;2024-01-30T08:25:37;102152.59;;;7.09;88.34
82413;BME280;72056;51.980;15.436;2024-01-30T08:28:04;102145.81;;;6.84;89.26
82413;BME280;72056;51.980;15.436;2024-01-30T08:30:31;102145.91;;;6.98;88.77
82413;BME280;72056;51.980;15.436;2024-01-30T08:32:57;102140.22;;;6.87;89.39
82413;BME280;72056;51.980;15.436;2024-01-30T08:35:25;102139.56;;;7.15;87.73
82413;BME280;72056;51.980;15.436;2024-01-30T08:37:52;102142.31;;;6.98;88.65
82413;BME280;72056;51.980;15.436;2024-01-30T08:40:21;102129.00;;;7.11;88.02
82413;BME280;72056;51.980;15.436;2024-01-30T08:42:48;102128.25;;;7.24;87.54
82413;BME280;72056;51.980;15.436;2024-01-30T08:45:14;102133.91;;;7.20;87.23
82413;BME280;72056;51.980;15.436;2024-01-30T08:47:40;102142.19;;;7.17;87.34
82413;BME280;72056;51.980;15.436;2024-01-30T08:50:08;102130.16;;;7.22;87.22
82413;BME280;72056;51.980;15.436;2024-01-30T08:52:35;102128.94;;;7.28;87.02
82413;BME280;72056;51.980;15.436;2024-01-30T08:55:02;102128.59;;;7.34;86.76
82413;BME280;72056;51.980;15.436;2024-01-30T08:57:30;102108.66;;;7.35;87.08
82413;BME280;72056;51.980;15.436;2024-01-30T08:59:57;102120.19;;;7.86;84.70
82413;BME280;72056;51.980;15.436;2024-01-30T09:02:24;102125.59;;;8.01;82.19
82413;BME280;72056;51.980;15.436;2024-01-30T09:04:51;102111.63;;;7.77;81.66
82413;BME280;72056;51.980;15.436;2024-01-30T09:07:18;102125.22;;;8.07;81.17
82413;BME280;72056;51.980;15.436;2024-01-30T09:09:45;102116.97;;;8.54;79.47
82413;BME280;72056;51.980;15.436;2024-01-30T09:12:11;102115.81;;;8.73;77.90
82413;BME280;72056;51.980;15.436;2024-01-30T09:14:39;102114.66;;;8.63;77.64
82413;BME280;72056;51.980;15.436;2024-01-30T09:17:08;102113.41;;;9.11;75.83
82413;BME280;72056;51.980;15.436;2024-01-30T09:19:35;102103.13;;;9.71;71.77
82413;BME280;72056;51.980;15.436;2024-01-30T09:22:02;102103.78;;;9.74;69.50
82413;BME280;72056;51.980;15.436;2024-01-30T09:24:29;102115.97;;;10.08;67.77
82413;BME280;72056;51.980;15.436;2024-01-30T09:26:56;102110.03;;;10.68;64.60
82413;BME280;72056;51.980;15.436;2024-01-30T09:29:23;102117.97;;;11.22;63.04
82413;BME280;72056;51.980;15.436;2024-01-30T09:31:49;102107.25;;;11.68;60.35
82413;BME280;72056;51.980;15.436;2024-01-30T09:34:16;102111.16;;;11.40;59.14
82413;BME280;72056;51.980;15.436;2024-01-30T09:36:44;102106.97;;;12.20;57.41
82413;BME280;72056;51.980;15.436;2024-01-30T09:39:10;102115.72;;;12.12;57.60
82413;BME280;72056;51.980;15.436;2024-01-30T09:41:48;102112.28;;;11.98;58.33
82413;BME280;72056;51.980;15.436;2024-01-30T09:44:16;102121.44;;;11.85;57.77
82413;BME280;72056;51.980;15.436;2024-01-30T09:46:44;102107.34;;;11.92;56.34
82413;BME280;72056;51.980;15.436;2024-01-30T09:49:14;102100.03;;;12.27;57.32
82413;BME280;72056;51.980;15.436;2024-01-30T09:51:40;102115.56;;;12.73;55.51
82413;BME280;72056;51.980;15.436;2024-01-30T09:54:08;102112.63;;;12.87;54.66
82413;BME280;72056;51.980;15.436;2024-01-30T09:56:35;102094.47;;;13.08;53.82
82413;BME280;72056;51.980;15.436;2024-01-30T09:59:02;102104.09;;;11.98;54.60
82413;BME280;72056;51.980;15.436;2024-01-30T10:01:29;102113.41;;;12.54;54.60
82413;BME280;72056;51.980;15.436;2024-01-30T10:03:56;102085.13;;;12.88;53.44
82413;BME280;72056;51.980;15.436;2024-01-30T10:06:24;102098.22;;;13.29;53.72
82413;BME280;72056;51.980;15.436;2024-01-30T10:08:51;102090.50;;;12.90;52.63
82413;BME280;72056;51.980;15.436;2024-01-30T10:11:17;102089.53;;;13.13;52.50
82413;BME280;72056;51.980;15.436;2024-01-30T10:13:44;102091.63;;;13.09;51.93
82413;BME280;72056;51.980;15.436;2024-01-30T10:16:15;102097.50;;;13.16;51.81
82413;BME280;72056;51.980;15.436;2024-01-30T10:18:43;102110.41;;;13.25;52.83
82413;BME280;72056;51.980;15.436;2024-01-30T10:21:09;102094.13;;;13.13;51.72
82413;BME280;72056;51.980;15.436;2024-01-30T10:23:37;102080.31;;;13.03;52.62
82413;BME280;72056;51.980;15.436;2024-01-30T10:26:07;102087.16;;;13.96;50.98
82413;BME280;72056;51.980;15.436;2024-01-30T10:28:33;102076.97;;;13.44;50.67
82413;BME280;72056;51.980;15.436;2024-01-30T10:30:59;102082.94;;;14.24;50.18
82413;BME280;72056;51.980;15.436;2024-01-30T10:33:27;102083.34;;;13.76;50.57
82413;BME280;72056;51.980;15.436;2024-01-30T10:36:00;102095.16;;;13.77;49.46
82413;BME280;72056;51.980;15.436;2024-01-30T10:38:47;102075.25;;;13.86;49.51
82413;BME280;72056;51.980;15.436;2024-01-30T10:41:20;102085.50;;;14.05;49.17
82413;BME280;72056;51.980;15.436;2024-01-30T10:43:58;102071.38;;;13.34;50.16
82413;BME280;72056;51.980;15.436;2024-01-30T10:46:31;102055.22;;;13.09;51.15
82413;BME280;72056;51.980;15.436;2024-01-30T10:48:58;102068.88;;;13.31;51.38
82413;BME280;72056;51.980;15.436;2024-01-30T10:51:27;102068.59;;;12.56;52.13
82413;BME280;72056;51.980;15.436;2024-01-30T10:53:56;102067.13;;;12.75;52.19
82413;BME280;72056;51.980;15.436;2024-01-30T10:56:23;102056.69;;;13.46;51.37
82413;BME280;72056;51.980;15.436;2024-01-30T10:58:53;102074.59;;;13.51;50.96
82413;BME280;72056;51.980;15.436;2024-01-30T11:01:21;102068.22;;;14.04;50.33
82413;BME280;72056;51.980;15.436;2024-01-30T11:03:51;102060.91;;;13.94;49.11
82413;BME280;72056;51.980;15.436;2024-01-30T11:06:18;102073.97;;;15.95;46.37
82413;BME280;72056;51.980;15.436;2024-01-30T11:08:45;102056.75;;;16.12;45.27
82413;BME280;72056;51.980;15.436;2024-01-30T11:11:12;102065.56;;;15.86;45.15
82413;BME280;72056;51.980;15.436;2024-01-30T11:13:40;102057.94;;;15.50;45.75
82413;BME280;72056;51.980;15.436;2024-01-30T11:16:07;102045.72;;;15.73;44.64
82413;BME280;72056;51.980;15.436;2024-01-30T11:18:37;102063.56;;;15.88;44.83
82413;BME280;72056;51.980;15.436;2024-01-30T11:21:04;102048.09;;;14.98;45.74
82413;BME280;72056;51.980;15.436;2024-01-30T11:23:33;102054.13;;;15.81;44.88
82413;BME280;72056;51.980;15.436;2024-01-30T11:26:00;102051.38;;;15.32;45.58
82413;BME280;72056;51.980;15.436;2024-01-30T11:28:33;102041.72;;;14.67;46.84
82413;BME280;72056;51.980;15.436;2024-01-30T11:31:19;102057.72;;;15.63;45.58
82413;BME280;72056;51.980;15.436;2024-01-30T11:33:52;102064.00;;;15.44;44.99
82413;BME280;72056;51.980;15.436;2024-01-30T11:36:22;102037.06;;;15.68;45.17
82413;BME280;72056;51.980;15.436;2024-01-30T11:38:51;102033.56;;;15.57;44.90
82413;BME280;72056;51.980;15.436;2024-01-30T11:41:17;102030.00;;;15.95;44.46
82413;BME280;72056;51.980;15.436;2024-01-30T11:43:52;102029.19;;;14.95;45.81
82413;BME280;72056;51.980;15.436;2024-01-30T11:46:19;102040.28;;;15.33;45.38
82413;BME280;72056;51.980;15.436;2024-01-30T11:48:50;102034.19;;;15.99;44.43
82413;BME280;72056;51.980;15.436;2024-01-30T11:51:18;102028.81;;;15.59;45.02
82413;BME280;72056;51.980;15.436;2024-01-30T11:53:49;102022.69;;;15.36;44.04
82413;BME280;72056;51.980;15.436;2024-01-30T11:56:16;102023.81;;;16.02;43.89
82413;BME280;72056;51.980;15.436;2024-01-30T11:58:48;102022.50;;;16.25;43.23
82413;BME280;72056;51.980;15.436;2024-01-30T12:01:16;102019.06;;;15.45;44.09
82413;BME280;72056;51.980;15.436;2024-01-30T12:03:49;102009.91;;;15.94;43.76
82413;BME280;72056;51.980;15.436;2024-01-30T12:06:15;102011.94;;;16.11;42.85
82413;BME280;72056;51.980;15.436;2024-01-30T12:08:42;102012.78;;;15.73;42.54
82413;BME280;72056;51.980;15.436;2024-01-30T12:11:08;102008.16;;;15.55;43.61
82413;BME280;72056;51.980;15.436;2024-01-30T12:13:35;101998.50;;;14.80;44.05
82413;BME280;72056;51.980;15.436;2024-01-30T12:16:03;102005.72;;;16.19;43.47
82413;BME280;72056;51.980;15.436;2024-01-30T12:18:30;101995.22;;;14.86;43.93
82413;BME280;72056;51.980;15.436;2024-01-30T12:20:59;101996.59;;;15.80;43.31
82413;BME280;72056;51.980;15.436;2024-01-30T12:23:27;101995.63;;;15.22;43.72
82413;BME280;72056;51.980;15.436;2024-01-30T12:25:53;101995.44;;;15.63;43.27
82413;BME280;72056;51.980;15.436;2024-01-30T12:28:20;101987.00;;;15.36;43.87
82413;BME280;72056;51.980;15.436;2024-01-30T12:30:46;101984.22;;;14.77;44.96
82413;BME280;72056;51.980;15.436;2024-01-30T12:33:17;101974.94;;;14.26;46.00
82413;BME280;72056;51.980;15.436;2024-01-30T12:35:47;101981.25;;;14.38;46.32
82413;BME280;72056;51.980;15.436;2024-01-30T12:38:14;101982.28;;;13.53;47.84
82413;BME280;72056;51.980;15.436;2024-01-30T12:40:42;101990.31;;;13.33;48.22
82413;BME280;72056;51.980;15.436;2024-01-30T12:43:16;101988.22;;;13.69;48.11
82413;BME280;72056;51.980;15.436;2024-01-30T12:45:42;101973.19;;;13.63;48.80